Time;durP1;ratioP1;P1;durP2;ratioP2;P2;SDS_P1;SDS_P2;PMS_P1;PMS_P2;Temp;Humidity;BMP_temperature;BMP_pressure;BME280_temperature;BME280_humidity;BME280_pressure;Samples;Min_cycle;Max_cycle;Signal;HPM_P1;HPM_P2
2024/04/17 00:01:45;;;;;;;24.25;6.97;;;5.20;99.90;;;;;;5346990;26;20009;-66
2024/04/17 00:04:11;;;;;;;21.75;6.07;;;5.10;99.90;;;;;;5347102;26;20008;-66
2024/04/17 00:06:36;;;;;;;22.65;6.55;;;5.10;99.90;;;;;;5346853;26;20315;-66
2024/04/17 00:09:02;;;;;;;22.70;6.80;;;5.10;99.90;;;;;;5346941;26;20008;-66
2024/04/17 00:11:28;;;;;;;24.70;7.45;;;5.00;99.90;;;;;;5346998;26;20000;-66
2024/04/17 00:13:53;;;;;;;25.20;7.82;;;5.10;99.90;;;;;;5347090;26;20001;-66
2024/04/17 00:16:19;;;;;;;20.35;7.47;;;5.10;99.90;;;;;;5346999;26;20001;-66
2024/04/17 00:18:44;;;;;;;21.05;7.47;;;5.00;99.90;;;;;;5347078;26;20001;-66
2024/04/17 00:21:10;;;;;;;36.83;7.85;;;5.00;99.90;;;;;;5347054;26;20004;-66
2024/04/17 00:23:35;;;;;;;31.25;7.60;;;5.00;99.90;;;;;;5347029;26;19993;-66
2024/04/17 00:26:01;;;;;;;28.75;7.43;;;5.00;99.90;;;;;;5346943;26;20004;-65
2024/04/17 00:28:26;;;;;;;20.48;6.22;;;4.90;99.90;;;;;;5346968;26;20007;-66
2024/04/17 00:30:52;;;;;;;21.52;6.68;;;4.80;99.90;;;;;;5347186;26;20074;-65
2024/04/17 00:33:17;;;;;;;23.52;6.85;;;4.80;99.90;;;;;;5346608;26;19997;-66
2024/04/17 00:35:43;;;;;;;22.55;8.95;;;4.80;99.90;;;;;;5346851;26;20001;-66
2024/04/17 00:38:09;;;;;;;27.55;6.97;;;4.80;99.90;;;;;;5346366;26;19997;-66
2024/04/17 00:40:35;;;;;;;30.15;7.25;;;4.80;99.90;;;;;;5346455;26;20004;-66
2024/04/17 00:43:02;;;;;;;28.40;8.02;;;4.70;99.90;;;;;;5346428;26;20008;-66
2024/04/17 00:45:32;;;;;;;25.05;6.65;;;4.70;99.90;;;;;;5346451;26;20324;-66
2024/04/17 00:47:58;;;;;;;22.58;6.10;;;4.70;99.90;;;;;;5346285;26;20529;-66
2024/04/17 00:50:24;;;;;;;18.58;6.28;;;4.60;99.90;;;;;;5346376;26;20009;-66
2024/04/17 00:52:51;;;;;;;24.77;6.97;;;4.60;99.90;;;;;;5346315;26;20351;-66
2024/04/17 00:55:16;;;;;;;24.35;6.75;;;4.60;99.90;;;;;;5346230;26;20419;-66
2024/04/17 00:57:43;;;;;;;30.10;6.63;;;4.50;99.90;;;;;;5345984;26;19997;-66
2024/04/17 01:00:10;;;;;;;35.80;7.72;;;4.50;99.90;;;;;;5346061;26;20000;-66
2024/04/17 01:02:35;;;;;;;21.58;6.53;;;4.50;99.90;;;;;;5347475;26;20328;-66
2024/04/17 01:05:01;;;;;;;23.17;6.85;;;4.60;99.90;;;;;;5349759;26;20001;-66
2024/04/17 01:07:27;;;;;;;24.27;8.18;;;4.50;99.90;;;;;;5349767;26;20008;-66
2024/04/17 01:09:54;;;;;;;34.90;7.68;;;4.50;99.90;;;;;;5349440;26;20001;-66
2024/04/17 01:12:20;;;;;;;29.92;8.05;;;4.60;99.90;;;;;;5349198;26;20330;-66
2024/04/17 01:14:46;;;;;;;28.90;6.85;;;4.50;99.90;;;;;;5349458;26;20007;-65
2024/04/17 01:17:11;;;;;;;19.98;6.78;;;4.50;99.90;;;;;;5349446;26;20008;-65
2024/04/17 01:19:37;;;;;;;25.95;5.95;;;4.30;99.90;;;;;;5349755;26;20008;-65
2024/04/17 01:22:03;;;;;;;22.35;6.47;;;4.30;99.90;;;;;;5349884;26;20499;-65
2024/04/17 01:24:28;;;;;;;18.95;6.22;;;4.70;99.90;;;;;;5349735;26;20005;-65
2024/04/17 01:26:54;;;;;;;26.63;7.32;;;4.20;99.90;;;;;;5349680;26;20008;-65
2024/04/17 01:29:19;;;;;;;25.73;7.75;;;4.20;99.90;;;;;;5349761;26;19997;-66
2024/04/17 01:31:45;;;;;;;21.85;6.30;;;4.20;99.90;;;;;;5349544;26;20013;-66
2024/04/17 01:34:11;;;;;;;30.92;7.60;;;4.10;99.90;;;;;;5349552;26;20011;-66
2024/04/17 01:36:36;;;;;;;16.63;6.13;;;4.20;99.90;;;;;;5349462;26;19996;-66
2024/04/17 01:39:02;;;;;;;13.90;5.43;;;4.10;99.90;;;;;;5349065;26;20005;-66
2024/04/17 01:41:28;;;;;;;20.38;5.97;;;3.90;99.90;;;;;;5349063;26;20012;-66
2024/04/17 01:43:53;;;;;;;28.65;6.60;;;3.80;99.90;;;;;;5348883;26;19997;-66
2024/04/17 01:46:19;;;;;;;27.52;7.22;;;3.90;99.90;;;;;;5349462;26;20001;-65
2024/04/17 01:48:44;;;;;;;31.98;6.20;;;4.00;99.90;;;;;;5349178;26;20001;-66
2024/04/17 01:51:10;;;;;;;19.05;5.38;;;4.00;99.90;;;;;;5349087;26;19997;-65
2024/04/17 01:53:35;;;;;;;32.67;6.63;;;4.00;99.90;;;;;;5349283;26;20081;-66
2024/04/17 01:56:01;;;;;;;18.88;5.75;;;3.90;99.90;;;;;;5349008;26;20001;-66
2024/04/17 01:58:26;;;;;;;24.75;5.78;;;3.80;99.90;;;;;;5348750;26;20459;-66
2024/04/17 02:00:52;;;;;;;15.77;5.97;;;3.70;99.90;;;;;;5348801;26;20070;-66
2024/04/17 02:03:17;;;;;;;19.95;5.75;;;3.70;99.90;;;;;;5348544;26;19996;-66
2024/04/17 02:05:43;;;;;;;31.88;6.38;;;3.60;99.90;;;;;;5348788;26;20075;-66
2024/04/17 02:08:10;;;;;;;23.42;6.28;;;;;;;;;;5348648;26;19993;-66
2024/04/17 02:10:36;;;;;;;22.27;6.32;;;3.30;99.90;;;;;;5348669;26;20029;-66
2024/04/17 02:13:02;;;;;;;23.13;6.35;;;3.60;99.90;;;;;;5348149;26;20012;-66
2024/04/17 02:15:27;;;;;;;30.67;6.13;;;3.50;99.90;;;;;;5347974;26;19997;-66
2024/04/17 02:17:53;;;;;;;27.73;6.95;;;3.50;99.90;;;;;;5348711;26;20463;-66
2024/04/17 02:20:19;;;;;;;22.27;6.25;;;;;;;;;;5348716;26;19997;-66
2024/04/17 02:22:44;;;;;;;33.85;6.85;;;3.20;99.90;;;;;;5348461;26;20004;-66
2024/04/17 02:25:10;;;;;;;22.27;6.35;;;3.40;99.90;;;;;;5348492;26;20082;-66
2024/04/17 02:27:35;;;;;;;27.30;6.63;;;3.30;99.90;;;;;;5348519;26;19997;-66
2024/04/17 02:30:01;;;;;;;25.90;6.82;;;3.00;99.90;;;;;;5348320;26;20009;-66
2024/04/17 02:32:26;;;;;;;25.23;7.07;;;3.00;99.90;;;;;;5348367;26;20009;-66
2024/04/17 02:34:52;;;;;;;21.40;7.00;;;3.00;99.90;;;;;;5346988;26;19993;-66
2024/04/17 02:37:17;;;;;;;23.40;7.55;;;3.00;99.90;;;;;;5348342;26;19997;-66
2024/04/17 02:39:43;;;;;;;25.38;7.80;;;3.00;99.90;;;;;;5348085;26;20447;-66
2024/04/17 02:42:08;;;;;;;21.95;7.35;;;2.90;99.90;;;;;;5348236;26;20070;-66
2024/04/17 02:44:34;;;;;;;23.45;7.45;;;2.80;99.90;;;;;;5348246;26;20070;-66
2024/04/17 02:47:01;;;;;;;26.48;8.05;;;2.80;99.90;;;;;;5348172;26;20070;-66
2024/04/17 02:49:26;;;;;;;24.48;7.32;;;2.90;99.90;;;;;;5375480;26;20404;-66
2024/04/17 02:51:52;;;;;;;26.42;7.90;;;2.70;99.90;;;;;;5348196;26;20012;-66
2024/04/17 02:54:18;;;;;;;36.83;8.45;;;2.80;99.90;;;;;;5348009;26;20011;-66
2024/04/17 02:56:43;;;;;;;24.00;8.05;;;2.90;99.90;;;;;;5348062;26;19992;-66
2024/04/17 02:59:09;;;;;;;30.95;8.43;;;2.80;99.90;;;;;;5347896;26;20405;-66
2024/04/17 03:01:34;;;;;;;30.73;9.10;;;2.80;99.90;;;;;;5347966;26;20015;-67
2024/04/17 03:04:00;;;;;;;24.60;8.77;;;2.80;99.90;;;;;;5347930;26;20012;-66
2024/04/17 03:06:25;;;;;;;21.45;8.35;;;2.70;99.90;;;;;;5348044;26;19993;-66
2024/04/17 03:08:51;;;;;;;19.33;7.72;;;2.70;99.90;;;;;;5347928;26;20325;-66
2024/04/17 03:11:17;;;;;;;25.67;8.13;;;2.60;99.90;;;;;;5347838;26;19997;-66
2024/04/17 03:13:42;;;;;;;26.17;8.55;;;2.70;99.90;;;;;;5347721;26;20096;-66
2024/04/17 03:16:08;;;;;;;29.85;8.20;;;2.80;99.90;;;;;;5347626;26;20001;-66
2024/04/17 03:18:34;;;;;;;28.45;8.75;;;2.80;99.90;;;;;;5347949;26;19997;-66
2024/04/17 03:21:01;;;;;;;30.13;9.07;;;2.80;99.90;;;;;;5347683;26;20075;-66
2024/04/17 03:23:26;;;;;;;28.52;9.82;;;2.90;99.90;;;;;;5347677;26;20451;-66
2024/04/17 03:25:56;;;;;;;28.33;9.75;;;2.80;99.90;;;;;;5347237;26;20105;-66
2024/04/17 03:28:22;;;;;;;20.05;9.57;;;2.80;99.90;;;;;;5347907;26;20007;-66
2024/04/17 03:30:47;;;;;;;36.22;9.68;;;2.80;99.90;;;;;;5347533;26;20342;-65
2024/04/17 03:33:13;;;;;;;30.95;9.05;;;2.70;99.90;;;;;;5347489;26;19997;-66
2024/04/17 03:35:39;;;;;;;34.38;10.02;;;2.60;99.90;;;;;;5347425;26;20007;-66
2024/04/17 03:38:04;;;;;;;25.15;9.20;;;2.70;99.90;;;;;;5347362;26;20008;-65
2024/04/17 03:40:30;;;;;;;30.65;10.20;;;2.60;99.90;;;;;;5345777;26;19997;-66
2024/04/17 03:42:55;;;;;;;38.15;10.05;;;2.60;99.90;;;;;;5347431;26;20451;-65
2024/04/17 03:45:21;;;;;;;35.78;10.20;;;2.50;99.90;;;;;;5347432;26;20317;-66
2024/04/17 03:47:47;;;;;;;24.13;8.95;;;2.50;99.90;;;;;;5347356;26;20429;-65
2024/04/17 03:50:12;;;;;;;23.60;7.95;;;2.40;99.90;;;;;;5347279;26;19996;-66
2024/04/17 03:52:38;;;;;;;27.05;7.88;;;2.30;99.90;;;;;;5347211;26;20443;-66
2024/04/17 03:55:03;;;;;;;25.77;8.40;;;2.30;99.90;;;;;;5347522;26;20004;-66
2024/04/17 03:57:30;;;;;;;28.55;7.75;;;2.20;99.90;;;;;;5347240;26;20001;-66
2024/04/17 03:59:55;;;;;;;29.55;9.80;;;2.20;99.90;;;;;;5345475;26;20004;-66
2024/04/17 04:02:22;;;;;;;23.90;8.43;;;2.20;99.90;;;;;;5347014;26;19999;-66
2024/04/17 04:04:48;;;;;;;25.35;7.95;;;2.20;99.90;;;;;;5347087;26;20289;-66
2024/04/17 04:07:13;;;;;;;31.00;9.13;;;2.30;99.90;;;;;;5347099;26;20001;-66
2024/04/17 04:09:39;;;;;;;26.98;8.55;;;2.30;99.90;;;;;;5347025;26;20012;-66
2024/04/17 04:12:05;;;;;;;26.05;8.13;;;2.30;99.90;;;;;;5347008;26;20001;-66
2024/04/17 04:14:31;;;;;;;28.02;9.05;;;2.30;99.90;;;;;;5347092;26;19997;-66
2024/04/17 04:16:56;;;;;;;35.13;11.20;;;2.40;99.90;;;;;;5346785;26;19993;-66
2024/04/17 04:19:22;;;;;;;37.75;12.23;;;2.50;99.90;;;;;;5347056;26;20012;-66
2024/04/17 04:21:47;;;;;;;36.83;11.25;;;2.60;99.90;;;;;;5347037;26;20509;-65
2024/04/17 04:24:13;;;;;;;33.33;10.65;;;2.50;99.90;;;;;;5347105;26;20008;-66
2024/04/17 04:26:38;;;;;;;31.00;11.48;;;2.60;99.90;;;;;;5346834;26;20037;-66
2024/04/17 04:29:04;;;;;;;43.63;11.45;;;2.60;99.90;;;;;;5346965;26;19997;-66
2024/04/17 04:31:30;;;;;;;44.92;11.40;;;2.50;99.90;;;;;;5346922;26;20001;-66
2024/04/17 04:33:56;;;;;;;45.60;13.40;;;2.50;99.90;;;;;;5346782;26;19993;-66
2024/04/17 04:36:22;;;;;;;32.67;11.32;;;2.50;99.90;;;;;;5346928;26;19997;-66
2024/04/17 04:38:47;;;;;;;28.50;11.88;;;2.50;99.90;;;;;;5350017;26;19997;-66
2024/04/17 04:41:13;;;;;;;38.53;12.20;;;2.50;99.90;;;;;;5349896;26;19997;-66
2024/04/17 04:43:38;;;;;;;31.25;12.18;;;2.50;99.90;;;;;;5349836;26;20393;-66
2024/04/17 04:46:04;;;;;;;42.00;13.07;;;2.50;99.90;;;;;;5349850;26;20401;-66
2024/04/17 04:48:29;;;;;;;34.03;12.00;;;2.60;99.90;;;;;;5349752;26;20001;-66
2024/04/17 04:50:55;;;;;;;49.63;13.10;;;2.60;99.90;;;;;;5350052;26;20000;-66
2024/04/17 04:53:20;;;;;;;30.05;13.13;;;2.70;99.90;;;;;;5349650;26;19993;-66
2024/04/17 04:56:02;;;;;;;35.67;12.27;;;2.70;99.90;;;;;;5349636;26;19993;-66
2024/04/17 04:58:28;;;;;;;29.55;12.35;;;2.80;99.90;;;;;;5349579;26;20073;-66
2024/04/17 05:00:54;;;;;;;38.67;13.00;;;2.70;99.90;;;;;;5349987;26;20041;-66
2024/04/17 05:03:21;;;;;;;41.00;12.77;;;2.80;99.90;;;;;;5347947;26;19997;-66
2024/04/17 05:05:47;;;;;;;39.60;12.10;;;2.70;99.90;;;;;;5347694;26;20001;-66
2024/04/17 05:08:12;;;;;;;38.92;13.60;;;2.80;99.90;;;;;;5349689;26;20005;-66
2024/04/17 05:10:38;;;;;;;37.55;13.23;;;2.90;99.90;;;;;;5349771;26;20001;-66
2024/04/17 05:13:04;;;;;;;42.88;12.73;;;3.00;99.90;;;;;;5349580;26;19997;-66
2024/04/17 05:15:29;;;;;;;36.33;13.00;;;3.10;99.90;;;;;;5349487;26;20454;-66
2024/04/17 05:17:55;;;;;;;45.80;13.65;;;3.30;99.90;;;;;;5349178;26;19997;-66
2024/04/17 05:20:21;;;;;;;38.63;15.13;;;3.40;99.90;;;;;;5347622;26;20327;-66
2024/04/17 05:22:47;;;;;;;46.42;17.60;;;3.60;99.90;;;;;;5349404;26;20008;-66
2024/04/17 05:25:12;;;;;;;45.35;15.93;;;3.70;99.90;;;;;;5349570;26;20001;-66
2024/04/17 05:27:38;;;;;;;43.88;16.00;;;3.80;99.90;;;;;;5349356;26;20007;-66
2024/04/17 05:30:05;;;;;;;43.53;14.50;;;4.00;99.90;;;;;;5347669;26;20479;-66
2024/04/17 05:32:30;;;;;;;32.72;12.50;;;4.10;99.90;;;;;;5349139;26;20008;-66
2024/04/17 05:34:56;;;;;;;34.92;13.38;;;4.20;99.90;;;;;;5349119;26;19997;-66
2024/04/17 05:37:21;;;;;;;41.92;13.48;;;4.50;99.90;;;;;;5349279;26;20008;-66
2024/04/17 05:39:47;;;;;;;38.50;12.07;;;4.60;99.90;;;;;;5349002;26;19997;-66
2024/04/17 05:42:13;;;;;;;39.25;11.32;;;4.80;99.90;;;;;;5349077;26;19993;-66
2024/04/17 05:44:38;;;;;;;38.17;10.70;;;4.90;99.90;;;;;;5348988;26;19997;-66
2024/04/17 05:47:04;;;;;;;29.52;9.27;;;5.00;99.90;;;;;;5348929;26;20009;-66
2024/04/17 05:49:30;;;;;;;36.95;13.80;;;5.10;99.90;;;;;;5348811;26;19997;-66
2024/04/17 05:51:56;;;;;;;53.00;21.60;;;5.10;99.90;;;;;;5348831;26;20094;-66
2024/04/17 05:54:22;;;;;;;37.42;12.63;;;5.10;99.90;;;;;;5347218;26;20007;-66
2024/04/17 05:56:49;;;;;;;31.88;11.55;;;5.20;99.90;;;;;;5348644;26;20003;-66
2024/04/17 05:59:14;;;;;;;29.23;10.95;;;5.20;99.90;;;;;;5348795;26;20004;-66
2024/04/17 06:01:40;;;;;;;37.65;16.20;;;5.10;99.90;;;;;;5348685;26;20013;-67
2024/04/17 06:04:05;;;;;;;37.97;14.75;;;5.10;99.90;;;;;;5348739;26;20044;-66
2024/04/17 06:06:31;;;;;;;32.60;10.60;;;5.20;99.90;;;;;;5348695;26;20029;-66
2024/04/17 06:08:56;;;;;;;31.67;11.55;;;5.00;99.90;;;;;;5348214;26;20013;-66
2024/04/17 06:11:23;;;;;;;30.35;10.77;;;5.10;99.90;;;;;;5358843;26;20085;-66
2024/04/17 06:13:49;;;;;;;33.45;10.27;;;5.00;99.90;;;;;;5354180;26;20012;-67
2024/04/17 06:16:15;;;;;;;39.00;14.73;;;5.00;99.90;;;;;;5371499;26;20011;-66
2024/04/17 06:18:40;;;;;;;30.40;9.95;;;5.00;99.90;;;;;;5381011;26;20032;-67
2024/04/17 06:21:06;;;;;;;31.00;13.02;;;5.10;99.90;;;;;;5383403;26;20007;-66
2024/04/17 06:23:31;;;;;;;32.47;12.88;;;5.10;99.90;;;;;;5380959;26;20442;-67
2024/04/17 06:25:57;;;;;;;33.97;15.32;;;5.00;99.90;;;;;;5371957;26;20014;-67
2024/04/17 06:28:23;;;;;;;27.75;11.80;;;5.10;99.90;;;;;;5350412;26;20351;-66
2024/04/17 06:30:48;;;;;;;25.35;11.05;;;5.10;99.90;;;;;;5366003;26;20013;-66
2024/04/17 06:33:14;;;;;;;23.13;11.25;;;5.10;99.90;;;;;;5379752;26;20069;-66
2024/04/17 06:35:39;;;;;;;26.25;10.27;;;5.10;99.90;;;;;;5372047;26;20363;-66
2024/04/17 06:38:05;;;;;;;25.80;11.20;;;5.00;99.90;;;;;;5381539;26;20014;-66
2024/04/17 06:40:30;;;;;;;28.88;14.32;;;5.10;99.90;;;;;;5368652;26;20008;-66
2024/04/17 06:42:56;;;;;;;29.30;11.57;;;5.10;99.90;;;;;;5358083;26;20408;-66
2024/04/17 06:45:21;;;;;;;37.67;15.93;;;5.30;99.90;;;;;;5359282;26;20450;-66
2024/04/17 06:47:47;;;;;;;37.08;17.40;;;5.40;99.90;;;;;;5368258;26;20015;-66
2024/04/17 06:50:12;;;;;;;23.58;10.70;;;5.50;99.90;;;;;;5369516;26;20012;-66
2024/04/17 06:52:38;;;;;;;25.45;9.05;;;5.60;99.90;;;;;;5409059;26;19996;-66
2024/04/17 06:55:04;;;;;;;25.15;8.30;;;5.50;99.90;;;;;;5370163;26;20012;-66
2024/04/17 06:57:29;;;;;;;46.53;17.83;;;5.70;99.90;;;;;;5367695;26;19996;-66
2024/04/17 06:59:55;;;;;;;26.40;8.02;;;5.80;99.90;;;;;;5369468;26;20004;-66
2024/04/17 07:02:20;;;;;;;29.65;10.40;;;6.00;99.90;;;;;;5371937;26;20350;-66
2024/04/17 07:04:46;;;;;;;22.40;7.65;;;6.00;99.90;;;;;;5363618;26;20019;-66
2024/04/17 07:07:11;;;;;;;20.17;6.95;;;6.10;99.90;;;;;;5376600;26;19996;-66
2024/04/17 07:09:37;;;;;;;19.77;6.97;;;6.20;99.90;;;;;;5367471;26;20000;-66
2024/04/17 07:12:03;;;;;;;14.27;6.13;;;6.10;99.90;;;;;;5371251;26;19997;-66
2024/04/17 07:14:29;;;;;;;20.63;6.55;;;6.10;99.90;;;;;;5369899;26;20019;-66
2024/04/17 07:16:54;;;;;;;20.80;6.80;;;6.00;99.90;;;;;;5377922;26;19999;-66
2024/04/17 07:19:21;;;;;;;18.35;6.75;;;6.00;99.90;;;;;;5365858;26;20018;-66
2024/04/17 07:21:47;;;;;;;26.80;6.63;;;6.00;99.90;;;;;;5375463;26;20082;-67
2024/04/17 07:24:13;;;;;;;19.45;6.35;;;5.90;99.90;;;;;;5375055;26;20458;-67
2024/04/17 07:26:38;;;;;;;17.45;6.88;;;6.00;99.90;;;;;;5376287;26;20028;-68
2024/04/17 07:29:04;;;;;;;21.52;6.40;;;5.90;99.90;;;;;;5365845;26;20011;-67
2024/04/17 07:31:29;;;;;;;17.65;6.88;;;5.90;99.90;;;;;;5368858;26;20074;-67
2024/04/17 07:33:55;;;;;;;21.48;6.90;;;5.90;99.90;;;;;;5381910;26;20047;-67
2024/04/17 07:36:20;;;;;;;16.13;5.78;;;5.80;99.90;;;;;;5358678;26;20001;-67
2024/04/17 07:38:46;;;;;;;20.92;6.35;;;5.80;99.90;;;;;;5375942;26;20012;-67
2024/04/17 07:41:11;;;;;;;23.25;7.13;;;6.00;99.90;;;;;;5381398;26;20004;-67
2024/04/17 07:43:37;;;;;;;11.18;4.93;;;6.00;99.90;;;;;;5379424;26;20004;-67
2024/04/17 07:46:03;;;;;;;13.52;4.28;;;6.00;99.90;;;;;;5367252;26;20036;-67
2024/04/17 07:48:30;;;;;;;9.88;4.28;;;6.00;99.90;;;;;;5382169;26;20003;-68
2024/04/17 07:50:55;;;;;;;7.78;4.20;;;6.00;99.90;;;;;;5382023;26;20351;-66
2024/04/17 07:53:21;;;;;;;11.40;4.35;;;6.10;99.90;;;;;;5367954;26;20552;-67
2024/04/17 07:55:47;;;;;;;10.60;4.45;;;6.20;99.90;;;;;;5371872;26;20512;-66
2024/04/17 07:58:13;;;;;;;15.23;5.15;;;6.10;99.90;;;;;;5376160;26;20004;-66
2024/04/17 08:00:39;;;;;;;11.95;4.80;;;6.20;99.90;;;;;;5365610;26;20408;-68
2024/04/17 08:03:08;;;;;;;15.10;4.88;;;6.20;99.90;;;;;;5367465;26;20011;-68
2024/04/17 08:05:33;;;;;;;7.07;3.83;;;6.30;99.90;;;;;;5379230;26;20004;-68
2024/04/17 08:07:59;;;;;;;13.98;3.90;;;6.10;99.90;;;;;;5376442;26;20548;-68
2024/04/17 08:10:24;;;;;;;12.13;3.75;;;6.00;99.90;;;;;;5383096;26;20456;-68
2024/04/17 08:12:53;;;;;;;10.05;4.00;;;5.90;99.90;;;;;;5382956;26;20457;-68
2024/04/17 08:15:21;;;;;;;8.95;3.50;;;5.90;99.90;;;;;;5372900;26;20000;-67
2024/04/17 08:17:47;;;;;;;11.07;4.28;;;5.80;99.90;;;;;;5363343;26;20008;-68
2024/04/17 08:20:13;;;;;;;9.00;3.88;;;5.80;99.90;;;;;;5363480;26;20000;-67
2024/04/17 08:22:38;;;;;;;10.65;3.83;;;5.90;99.90;;;;;;5370209;26;20000;-67
2024/04/17 08:25:05;;;;;;;11.88;4.30;;;5.80;99.90;;;;;;5384426;26;20008;-68
2024/04/17 08:27:30;;;;;;;8.93;3.85;;;5.80;99.90;;;;;;5378498;26;20473;-67
2024/04/17 08:29:56;;;;;;;14.18;5.97;;;5.90;99.90;;;;;;5359643;26;20044;-67
2024/04/17 08:32:21;;;;;;;13.75;5.93;;;5.90;99.90;;;;;;5372871;26;20009;-67
2024/04/17 08:34:47;;;;;;;4.95;2.60;;;5.80;99.90;;;;;;5380724;26;20365;-67
2024/04/17 08:37:12;;;;;;;8.90;3.33;;;5.90;99.90;;;;;;5371547;26;20337;-67
2024/04/17 08:39:38;;;;;;;9.30;2.78;;;5.80;99.90;;;;;;5372262;26;20081;-68
2024/04/17 08:42:06;;;;;;;4.97;2.13;;;5.80;99.90;;;;;;5371136;26;20004;-67
2024/04/17 08:44:34;;;;;;;6.72;1.92;;;5.80;99.90;;;;;;5374105;26;20040;-67
2024/04/17 08:47:03;;;;;;;5.55;2.00;;;5.70;99.90;;;;;;5386248;26;20329;-68
2024/04/17 08:49:31;;;;;;;5.25;3.08;;;5.70;99.90;;;;;;5362720;26;20005;-67
2024/04/17 08:51:58;;;;;;;7.63;3.53;;;5.80;99.90;;;;;;5388954;26;20330;-68
2024/04/17 08:54:25;;;;;;;5.20;1.95;;;5.90;99.90;;;;;;5384071;26;20007;-68
2024/04/17 08:56:54;;;;;;;2.47;1.48;;;6.00;99.90;;;;;;5382927;26;20320;-67
2024/04/17 08:59:20;;;;;;;4.07;1.42;;;6.00;99.90;;;;;;5383865;26;20073;-68
2024/04/17 09:01:47;;;;;;;2.60;1.27;;;6.10;99.90;;;;;;5384096;26;20024;-67
2024/04/17 09:04:14;;;;;;;1.33;1.05;;;6.20;99.90;;;;;;5372120;26;20408;-69
2024/04/17 09:06:40;;;;;;;2.88;1.98;;;6.30;99.90;;;;;;5364312;26;20455;-67
2024/04/17 09:09:09;;;;;;;4.18;3.78;;;6.30;99.90;;;;;;5383232;26;20365;-67
2024/04/17 09:11:37;;;;;;;6.03;5.45;;;6.30;99.90;;;;;;5384303;26;20479;-67
2024/04/17 09:14:02;;;;;;;2.42;2.17;;;6.30;99.90;;;;;;5383512;26;20012;-68
2024/04/17 09:16:28;;;;;;;3.25;1.38;;;6.40;99.90;;;;;;5374360;26;20369;-66
2024/04/17 09:18:54;;;;;;;3.72;1.40;;;6.30;99.90;;;;;;5363235;26;20078;-67
2024/04/17 09:21:20;;;;;;;1.98;1.40;;;6.70;99.90;;;;;;5370193;26;20007;-67
2024/04/17 09:23:45;;;;;;;2.67;1.63;;;6.80;99.90;;;;;;5368611;26;20367;-67
2024/04/17 09:26:13;;;;;;;4.93;1.75;;;6.70;99.90;;;;;;5367500;26;20005;-67
2024/04/17 09:28:39;;;;;;;2.65;1.65;;;6.70;99.90;;;;;;5383069;26;20000;-67
2024/04/17 09:31:05;;;;;;;3.97;1.50;;;6.60;99.90;;;;;;5383994;26;20457;-67
2024/04/17 09:33:31;;;;;;;3.72;1.60;;;6.70;99.90;;;;;;5368568;26;19997;-67
2024/04/17 09:36:00;;;;;;;4.15;1.85;;;6.70;99.90;;;;;;5365538;26;20003;-67
2024/04/17 09:38:26;;;;;;;1.83;1.70;;;6.70;99.90;;;;;;5383558;26;20330;-67
2024/04/17 09:40:52;;;;;;;3.58;1.60;;;6.60;99.90;;;;;;5363109;26;20001;-66
2024/04/17 09:43:26;;;;;;;3.75;1.80;;;6.50;99.90;;;;;;5380822;26;20015;-67
2024/04/17 09:45:59;;;;;;;2.80;1.92;;;6.60;99.90;;;;;;5382087;26;20438;-67
2024/04/17 09:48:28;;;;;;;2.47;2.10;;;6.50;99.90;;;;;;5381899;26;20040;-66
2024/04/17 09:51:04;;;;;;;2.80;1.98;;;6.50;99.90;;;;;;5383422;26;20073;-67
2024/04/17 09:53:32;;;;;;;4.38;2.15;;;6.40;99.90;;;;;;5360747;26;20004;-67
2024/04/17 09:55:59;;;;;;;3.25;2.15;;;6.50;99.90;;;;;;5383602;26;20491;-67
2024/04/17 09:58:32;;;;;;;3.58;2.03;;;6.60;99.90;;;;;;5377621;26;20005;-67
2024/04/17 10:01:00;;;;;;;;;;;6.60;99.90;;;;;;5351228;26;20395;-67
2024/04/17 10:03:27;;;;;;;5.82;2.85;;;6.60;99.90;;;;;;5348118;26;20384;-67
2024/04/17 10:05:53;;;;;;;4.82;2.80;;;6.60;99.90;;;;;;5366758;26;20010;-67
2024/04/17 10:08:21;;;;;;;4.20;3.00;;;6.70;99.90;;;;;;5355936;26;20017;-67
2024/04/17 10:10:46;;;;;;;4.60;2.95;;;6.80;99.90;;;;;;5348366;26;20028;-67
2024/04/17 10:13:13;;;;;;;5.32;3.45;;;7.00;99.90;;;;;;5381136;26;20008;-67
2024/04/17 10:15:39;;;;;;;5.72;3.00;;;7.30;99.90;;;;;;5363397;26;20445;-67
2024/04/17 10:18:05;;;;;;;5.07;3.85;;;7.50;99.90;;;;;;5361194;26;20011;-67
2024/04/17 10:20:32;;;;;;;7.35;3.45;;;7.80;99.90;;;;;;5348091;26;20001;-67
2024/04/17 10:23:05;;;;;;;4.78;3.25;;;7.80;99.90;;;;;;5348254;26;20012;-67
2024/04/17 10:25:32;;;;;;;4.78;3.45;;;7.80;99.90;;;;;;5367045;26;19992;-67
2024/04/17 10:28:03;;;;;;;7.03;3.60;;;7.70;99.90;;;;;;5405641;26;20003;-66
2024/04/17 10:30:28;;;;;;;6.35;3.88;;;7.90;99.90;;;;;;5405719;26;20011;-68
2024/04/17 10:32:54;;;;;;;6.57;3.40;;;8.00;99.90;;;;;;5382381;26;19992;-67
2024/04/17 10:35:27;;;;;;;6.80;4.28;;;7.90;99.90;;;;;;5380067;26;19992;-66
2024/04/17 10:37:53;;;;;;;5.63;3.65;;;7.90;99.90;;;;;;5365342;26;20024;-67
2024/04/17 10:40:20;;;;;;;4.13;3.42;;;7.70;99.90;;;;;;5382370;26;20000;-67
2024/04/17 10:42:46;;;;;;;6.30;3.75;;;7.80;99.90;;;;;;5367916;26;20024;-67
2024/04/17 10:45:12;;;;;;;5.78;4.15;;;7.80;99.90;;;;;;5371990;26;20003;-67
2024/04/17 10:47:37;;;;;;;6.10;3.72;;;7.70;99.90;;;;;;5379210;26;20010;-67
2024/04/17 10:50:04;;;;;;;4.97;3.40;;;7.80;99.90;;;;;;5368588;26;20011;-67
2024/04/17 10:52:31;;;;;;;9.13;5.38;;;7.80;99.90;;;;;;5373987;26;20085;-67
2024/04/17 10:54:59;;;;;;;7.28;3.95;;;8.00;99.90;;;;;;5367664;26;20082;-67
2024/04/17 10:57:28;;;;;;;9.02;4.20;;;7.70;99.90;;;;;;5360685;26;20004;-67
2024/04/17 10:59:53;;;;;;;6.75;4.60;;;8.00;99.90;;;;;;5373665;26;20079;-67
2024/04/17 11:02:19;;;;;;;6.15;3.53;;;8.00;99.90;;;;;;5416456;26;20010;-67
2024/04/17 11:04:45;;;;;;;11.00;4.25;;;8.40;99.90;;;;;;5404597;26;20011;-67
2024/04/17 11:07:12;;;;;;;7.10;3.90;;;8.70;99.90;;;;;;5370880;26;20001;-67
2024/04/17 11:09:42;;;;;;;7.00;3.55;;;9.20;99.90;;;;;;5365968;26;20077;-67
2024/04/17 11:12:15;;;;;;;5.05;3.10;;;9.50;99.90;;;;;;5370244;26;20012;-68
2024/04/17 11:14:40;;;;;;;7.00;2.92;;;9.40;99.90;;;;;;5373441;26;20089;-67
2024/04/17 11:17:08;;;;;;;7.60;2.80;;;9.00;99.90;;;;;;5366642;26;20029;-67
2024/04/17 11:19:34;;;;;;;7.93;2.75;;;8.50;99.90;;;;;;5347480;26;20000;-67
2024/04/17 11:22:07;;;;;;;8.30;4.10;;;8.50;99.90;;;;;;5347535;26;20053;-66
2024/04/17 11:24:34;;;;;;;7.20;4.45;;;8.70;99.90;;;;;;5367173;26;20014;-66
2024/04/17 11:26:59;;;;;;;7.00;3.35;;;8.80;99.90;;;;;;5362671;26;20004;-67
2024/04/17 11:29:25;;;;;;;5.07;3.10;;;9.10;99.90;;;;;;5400565;26;20074;-67
2024/04/17 11:31:51;;;;;;;6.95;3.38;;;9.50;99.90;;;;;;5371135;26;20004;-67
2024/04/17 11:34:19;;;;;;;6.05;3.10;;;9.50;98.20;;;;;;5393480;26;20008;-66
2024/04/17 11:36:46;;;;;;;9.15;3.30;;;9.60;99.90;;;;;;5346971;26;19993;-67
2024/04/17 11:39:11;;;;;;;7.05;3.25;;;9.60;99.90;;;;;;5347413;26;20015;-67
2024/04/17 11:41:37;;;;;;;6.30;2.85;;;10.00;99.90;;;;;;5349493;26;20001;-66
2024/04/17 11:44:03;;;;;;;7.38;3.05;;;9.80;76.40;;;;;;5352426;26;20004;-66
2024/04/17 11:46:28;;;;;;;9.73;4.57;;;10.10;89.00;;;;;;5362018;26;20087;-67
2024/04/17 11:48:54;;;;;;;6.82;3.28;;;10.10;94.30;;;;;;5376723;26;20009;-67
2024/04/17 11:51:21;;;;;;;2.55;1.70;;;10.20;53.90;;;;;;5361324;26;20000;-67
2024/04/17 11:53:46;;;;;;;1.50;1.38;;;9.40;37.60;;;;;;5356257;26;19997;-66
2024/04/17 11:56:13;;;;;;;3.35;1.17;;;8.80;45.90;;;;;;5347110;26;20001;-66
2024/04/17 11:58:39;;;;;;;3.00;1.10;;;8.50;77.80;;;;;;5373764;26;20454;-67
2024/04/17 12:01:05;;;;;;;2.83;1.40;;;8.10;80.40;;;;;;5373385;26;20002;-66
2024/04/17 12:03:31;;;;;;;4.05;1.75;;;8.00;99.90;;;;;;5364037;26;20001;-66
2024/04/17 12:05:57;;;;;;;2.00;1.40;;;7.70;99.90;;;;;;5360111;26;20001;-66
2024/04/17 12:08:24;;;;;;;3.03;1.67;;;7.40;99.90;;;;;;5347043;26;20001;-66
2024/04/17 12:10:51;;;;;;;3.33;1.60;;;7.30;99.90;;;;;;5359516;26;20025;-66
2024/04/17 12:13:16;;;;;;;2.92;1.80;;;7.10;99.90;;;;;;5357162;26;20067;-67
2024/04/17 12:15:43;;;;;;;3.08;1.40;;;7.30;99.90;;;;;;5363761;26;20004;-66
2024/04/17 12:18:08;;;;;;;2.75;1.50;;;7.30;97.30;;;;;;5371083;26;20074;-69
2024/04/17 12:20:34;;;;;;;2.58;1.27;;;7.70;99.90;;;;;;5368036;26;20463;-68
2024/04/17 12:22:59;;;;;;;4.90;1.38;;;8.10;99.90;;;;;;5367494;26;20081;-67
2024/04/17 12:28:10;;;;;;;5.07;1.80;;;8.60;75.10;;;;;;5359000;26;20004;-67
2024/04/17 12:30:36;;;;;;;3.53;2.05;;;8.50;67.60;;;;;;5381204;26;19996;-67
2024/04/17 12:33:02;;;;;;;3.85;1.85;;;8.70;90.20;;;;;;5381107;26;20012;-67
2024/04/17 12:35:27;;;;;;;2.88;2.00;;;8.70;94.50;;;;;;5365758;26;20482;-67
2024/04/17 12:37:53;;;;;;;6.57;2.13;;;8.90;94.80;;;;;;5375032;26;20019;-67
2024/04/17 12:40:18;;;;;;;3.95;1.88;;;8.90;82.70;;;;;;5372527;26;19997;-67
2024/04/17 12:42:44;;;;;;;3.95;2.25;;;9.00;89.30;;;;;;5352089;26;20000;-67
2024/04/17 12:45:09;;;;;;;7.55;2.13;;;9.20;64.00;;;;;;5378033;26;20004;-67